createdAt,value
2022-12-28T00:00:51.677Z,10.32
2022-12-28T00:05:45.009Z,9.80
2022-12-28T00:11:09.073Z,9.25
2022-12-28T00:15:52.960Z,10.65
2022-12-28T00:20:48.556Z,11.23
2022-12-28T00:25:41.870Z,15.85
2022-12-28T00:30:35.094Z,8.73
2022-12-28T00:35:29.898Z,10.10
2022-12-28T00:40:24.295Z,9.25
2022-12-28T00:45:18.930Z,8.27
2022-12-28T00:50:12.394Z,11.05
2022-12-28T00:55:07.518Z,10.30
2022-12-28T01:00:00.643Z,8.90
2022-12-28T01:04:53.800Z,8.45
2022-12-28T01:09:47.108Z,9.23
2022-12-28T01:14:41.783Z,10.15
2022-12-28T01:19:34.969Z,8.60
2022-12-28T01:24:28.131Z,8.10
2022-12-28T01:29:21.383Z,9.07
2022-12-28T01:34:16.497Z,8.93
2022-12-28T01:39:12.908Z,7.05
2022-12-28T01:44:45.374Z,8.32
2022-12-28T01:49:44.663Z,7.93
2022-12-28T01:54:43.973Z,16.85
2022-12-28T01:59:42.120Z,10.07
2022-12-28T02:04:35.478Z,9.27
2022-12-28T02:09:34.489Z,8.05
2022-12-28T02:14:29.011Z,10.38
2022-12-28T02:19:35.062Z,9.90
2022-12-28T02:25:12.484Z,9.85
2022-12-28T02:30:10.463Z,7.13
2022-12-28T02:35:09.827Z,6.53
2022-12-28T02:40:08.536Z,6.35
2022-12-28T02:45:20.960Z,4.85
2022-12-28T02:50:18.072Z,6.25
2022-12-28T02:55:58.535Z,6.82
2022-12-28T03:01:04.384Z,4.95
2022-12-28T03:06:30.265Z,6.03
2022-12-28T03:11:31.903Z,11.45
2022-12-28T03:16:54.736Z,5.15
2022-12-28T03:22:13.745Z,4.70
2022-12-28T03:27:33.152Z,3.80
2022-12-28T03:32:26.585Z,4.75
2022-12-28T03:37:25.943Z,5.20
2022-12-28T03:42:45.635Z,4.85
2022-12-28T03:47:42.163Z,4.32
2022-12-28T03:52:37.469Z,4.95
2022-12-28T03:57:32.013Z,7.95
2022-12-28T04:02:25.906Z,6.20
2022-12-28T04:07:19.383Z,5.60
2022-12-28T04:12:16.426Z,6.07
2022-12-28T04:17:41.973Z,9.80
2022-12-28T04:22:36.199Z,4.57
2022-12-28T04:27:30.910Z,12.30
2022-12-28T04:32:31.834Z,5.28
2022-12-28T04:37:25.223Z,5.78
2022-12-28T04:42:18.370Z,9.90
2022-12-28T04:47:13.563Z,5.82
2022-12-28T04:52:06.916Z,5.87
2022-12-28T04:57:00.119Z,5.30
2022-12-28T05:01:53.384Z,9.53
2022-12-28T05:06:48.003Z,6.57
2022-12-28T05:11:41.275Z,6.20
2022-12-28T05:16:35.025Z,8.10
2022-12-28T05:21:30.012Z,7.30
2022-12-28T05:26:27.134Z,7.27
2022-12-28T05:31:22.612Z,7.13
2022-12-28T05:36:18.018Z,7.63
2022-12-28T05:41:13.807Z,9.53
2022-12-28T05:46:10.820Z,5.13
2022-12-28T05:51:05.973Z,6.57
2022-12-28T05:56:05.659Z,7.40
2022-12-28T06:01:10.494Z,8.53
2022-12-28T06:06:08.573Z,11.50
2022-12-28T06:11:02.921Z,7.37
2022-12-28T06:15:56.176Z,9.30
2022-12-28T06:20:56.795Z,7.00
2022-12-28T06:25:50.404Z,9.37
2022-12-28T06:30:48.944Z,7.67
2022-12-28T06:35:45.764Z,8.67
2022-12-28T06:45:57.633Z,7.83
2022-12-28T06:50:58.760Z,8.50
2022-12-28T06:55:57.970Z,8.87
2022-12-28T07:00:51.306Z,6.80
2022-12-28T07:05:47.640Z,7.20
2022-12-28T07:10:40.981Z,9.53
2022-12-28T07:15:43.963Z,7.30
2022-12-28T07:20:40.622Z,7.00
2022-12-28T07:25:33.961Z,7.03
2022-12-28T07:30:27.229Z,6.20
2022-12-28T07:35:21.891Z,7.10
2022-12-28T07:40:15.151Z,5.63
2022-12-28T07:45:10.932Z,9.40
2022-12-28T07:50:07.544Z,7.28
2022-12-28T07:55:02.407Z,7.18
2022-12-28T07:59:55.626Z,7.75
2022-12-28T08:04:52.239Z,7.65
2022-12-28T08:09:45.868Z,6.18
2022-12-28T08:14:43.025Z,6.78
2022-12-28T08:19:39.260Z,9.45
2022-12-28T08:24:32.500Z,5.82
2022-12-28T08:29:25.707Z,5.35
2022-12-28T08:34:29.403Z,7.82
2022-12-28T08:39:22.617Z,8.32
2022-12-28T08:44:20.876Z,7.68
2022-12-28T08:49:16.296Z,6.68
2022-12-28T08:54:13.751Z,6.03
2022-12-28T08:59:07.282Z,4.22
2022-12-28T09:04:02.400Z,5.20
2022-12-28T09:09:05.487Z,7.45
2022-12-28T09:14:03.532Z,5.45
2022-12-28T09:19:01.226Z,5.05
2022-12-28T09:23:55.920Z,4.32
2022-12-28T09:28:50.400Z,9.13
2022-12-28T09:39:18.376Z,6.72
2022-12-28T09:44:28.655Z,7.28
2022-12-28T09:49:29.395Z,8.00
2022-12-28T09:54:23.241Z,7.07
2022-12-28T09:59:20.693Z,9.77
2022-12-28T10:04:17.184Z,8.85
2022-12-28T10:09:19.703Z,8.52
2022-12-28T10:14:20.685Z,7.78
2022-12-28T10:19:20.148Z,11.90
2022-12-28T10:24:31.428Z,8.83
2022-12-28T10:29:27.178Z,8.90
2022-12-28T10:34:22.990Z,10.07
2022-12-28T10:39:27.422Z,5.72
2022-12-28T10:44:42.032Z,9.00
2022-12-28T10:49:39.534Z,8.70
2022-12-28T10:54:38.477Z,6.43
2022-12-28T10:59:33.877Z,7.53
2022-12-28T11:04:27.899Z,5.03
2022-12-28T11:09:23.927Z,4.95
2022-12-28T11:14:29.838Z,16.13
2022-12-28T11:19:24.010Z,9.50
2022-12-28T11:24:25.786Z,8.00
2022-12-28T11:29:20.480Z,5.00
2022-12-28T11:34:27.213Z,7.47
2022-12-28T11:39:46.458Z,7.32
2022-12-28T11:44:55.442Z,9.70
2022-12-28T11:49:51.768Z,6.97
2022-12-28T11:54:53.488Z,6.95
2022-12-28T11:59:47.077Z,4.65
2022-12-28T12:04:47.532Z,8.27
2022-12-28T12:14:45.705Z,8.90
2022-12-28T12:19:43.695Z,8.93
2022-12-28T12:24:44.323Z,5.53
2022-12-28T12:29:43.135Z,7.30
2022-12-28T12:34:45.128Z,5.93
2022-12-28T12:39:52.985Z,11.05
2022-12-28T12:45:01.608Z,9.23
2022-12-28T12:50:16.537Z,16.30
2022-12-28T12:55:22.842Z,5.55
2022-12-28T13:00:21.394Z,12.88
2022-12-28T13:05:18.621Z,10.07
2022-12-28T13:10:18.653Z,5.90
2022-12-28T13:15:19.775Z,11.23
2022-12-28T13:20:20.399Z,6.10
2022-12-28T13:25:26.009Z,19.85
2022-12-28T13:30:23.505Z,12.25
2022-12-28T13:35:22.015Z,5.85
2022-12-28T13:40:17.832Z,9.10
2022-12-28T13:45:19.680Z,6.78
2022-12-28T13:50:18.782Z,13.27
2022-12-28T13:55:19.293Z,10.38
2022-12-28T14:05:09.631Z,33.05
2022-12-28T14:10:05.458Z,16.58
2022-12-28T14:15:02.831Z,11.13
2022-12-28T14:19:58.072Z,11.52
2022-12-28T14:25:03.608Z,15.32
2022-12-28T14:29:58.994Z,10.57
2022-12-28T14:34:58.538Z,14.35
2022-12-28T14:39:51.775Z,13.87
2022-12-28T14:44:54.158Z,14.18
2022-12-28T14:49:58.763Z,15.55
2022-12-28T14:54:55.694Z,23.00
2022-12-28T14:59:56.401Z,26.58
2022-12-28T15:05:00.340Z,26.92
2022-12-28T15:09:53.994Z,27.20
2022-12-28T15:14:48.077Z,27.30
2022-12-28T15:19:43.209Z,31.55
2022-12-28T15:24:41.693Z,35.78
2022-12-28T15:34:48.424Z,47.05
2022-12-28T15:39:44.262Z,57.65
2022-12-28T15:44:37.474Z,52.70
2022-12-28T15:49:32.859Z,57.17
2022-12-28T15:54:26.135Z,99.57
2022-12-28T15:59:21.351Z,87.40
2022-12-28T16:04:14.815Z,78.13
2022-12-28T16:09:09.353Z,91.90
2022-12-28T16:14:04.904Z,91.97
2022-12-28T16:19:02.528Z,109.60
2022-12-28T16:23:56.796Z,112.67
2022-12-28T16:28:50.224Z,99.10
2022-12-28T16:33:43.391Z,100.03
2022-12-28T16:38:37.988Z,106.70
2022-12-28T16:43:31.362Z,92.13
2022-12-28T16:48:25.122Z,104.03
2022-12-28T16:53:24.347Z,92.33
2022-12-28T16:58:19.546Z,90.50
2022-12-28T17:03:12.754Z,97.57
2022-12-28T17:08:08.372Z,94.00
2022-12-28T17:13:01.580Z,186.97
2022-12-28T17:17:56.158Z,149.73
2022-12-28T17:22:49.341Z,167.20
2022-12-28T17:27:42.644Z,215.43
2022-12-28T17:32:35.918Z,244.50
2022-12-28T17:37:30.532Z,273.47
2022-12-28T17:42:24.111Z,221.33
2022-12-28T17:47:20.250Z,209.23
2022-12-28T17:52:18.755Z,202.23
2022-12-28T17:57:13.470Z,198.57
2022-12-28T18:02:10.313Z,206.43
2022-12-28T18:07:06.768Z,220.60
2022-12-28T18:12:00.278Z,246.87
2022-12-28T18:16:56.460Z,162.20
2022-12-28T18:21:50.562Z,127.53
2022-12-28T18:26:43.741Z,102.80
2022-12-28T18:31:37.981Z,101.83
2022-12-28T18:36:32.672Z,108.17
2022-12-28T18:41:32.053Z,177.03
2022-12-28T18:46:27.004Z,175.77
2022-12-28T18:51:20.479Z,162.13
2022-12-28T18:56:16.697Z,137.77
2022-12-28T19:01:39.783Z,258.57
2022-12-28T19:06:26.945Z,158.57
2022-12-28T19:11:21.617Z,131.93
2022-12-28T19:16:18.717Z,139.43
2022-12-28T19:21:19.903Z,147.17
2022-12-28T19:26:13.207Z,121.70
2022-12-28T19:31:07.981Z,132.13
2022-12-28T19:36:01.908Z,114.97
2022-12-28T19:40:55.593Z,105.63
2022-12-28T19:45:48.917Z,97.77
2022-12-28T19:50:43.568Z,85.80
2022-12-28T19:55:37.357Z,101.80
2022-12-28T20:00:32.564Z,81.87
2022-12-28T20:05:26.362Z,77.80
2022-12-28T20:10:21.171Z,63.40
2022-12-28T20:15:20.855Z,67.73
2022-12-28T20:20:16.990Z,68.67
2022-12-28T20:25:11.086Z,64.83
2022-12-28T20:30:06.725Z,59.70
2022-12-28T20:34:59.953Z,71.33
2022-12-28T20:39:55.106Z,70.23
2022-12-28T20:44:51.349Z,74.97
2022-12-28T20:49:46.106Z,53.53
2022-12-28T20:54:39.587Z,48.17
2022-12-28T20:59:34.108Z,40.97
2022-12-28T21:04:27.664Z,45.67
2022-12-28T21:09:24.672Z,39.83
2022-12-28T21:14:17.896Z,39.37
2022-12-28T21:19:11.502Z,35.47
2022-12-28T21:24:05.039Z,44.97
2022-12-28T21:29:00.490Z,57.97
2022-12-28T21:33:55.895Z,63.57
2022-12-28T21:38:49.940Z,48.70
2022-12-28T21:43:43.703Z,65.23
2022-12-28T21:48:39.333Z,51.60
2022-12-28T21:53:32.662Z,47.27
2022-12-28T21:58:25.900Z,34.00
2022-12-28T22:03:49.989Z,43.33
2022-12-28T22:09:12.344Z,29.67
2022-12-28T22:14:06.259Z,50.23
2022-12-28T22:19:04.871Z,65.00
2022-12-28T22:23:58.167Z,70.10
2022-12-28T22:28:52.206Z,35.90
2022-12-28T22:33:45.509Z,27.13
2022-12-28T22:38:40.415Z,18.07
2022-12-28T22:43:33.984Z,16.63
2022-12-28T22:48:27.476Z,14.87
2022-12-28T22:53:20.922Z,17.47
2022-12-28T22:58:15.615Z,18.90
2022-12-28T23:03:08.788Z,15.07
2022-12-28T23:08:02.115Z,11.20
2022-12-28T23:12:55.295Z,13.30
2022-12-28T23:17:50.455Z,13.93
2022-12-28T23:23:06.714Z,14.20
2022-12-28T23:28:01.881Z,11.67
2022-12-28T23:32:59.673Z,14.63
2022-12-28T23:37:53.297Z,14.00
2022-12-28T23:42:46.987Z,12.77
2022-12-28T23:47:43.903Z,14.23
2022-12-28T23:52:38.665Z,15.93
2022-12-28T23:57:31.941Z,20.70
